createdAt,value
2023-11-24T00:02:56.979Z,11.15
2023-11-24T00:05:58.404Z,10.93
2023-11-24T00:08:59.743Z,15.73
2023-11-24T00:12:01.137Z,10.95
2023-11-24T00:15:02.542Z,10.00
2023-11-24T00:18:03.958Z,10.30
2023-11-24T00:21:05.393Z,10.18
2023-11-24T00:24:06.724Z,10.13
2023-11-24T00:27:08.110Z,10.35
2023-11-24T00:30:09.435Z,9.93
2023-11-24T00:33:10.876Z,10.68
2023-11-24T00:36:12.329Z,11.77
2023-11-24T00:39:13.733Z,10.02
2023-11-24T00:42:15.048Z,9.90
2023-11-24T00:45:16.435Z,10.97
2023-11-24T00:48:17.758Z,10.40
2023-11-24T00:51:19.143Z,10.18
2023-11-24T00:54:20.484Z,9.13
2023-11-24T00:57:21.931Z,10.48
2023-11-24T01:00:23.292Z,8.93
2023-11-24T01:03:24.730Z,10.43
2023-11-24T01:06:26.129Z,10.50
2023-11-24T01:09:27.597Z,9.38
2023-11-24T01:12:28.974Z,10.15
2023-11-24T01:15:30.395Z,10.07
2023-11-24T01:18:31.850Z,9.18
2023-11-24T01:21:33.264Z,9.95
2023-11-24T01:24:34.738Z,10.70
2023-11-24T01:27:36.069Z,9.23
2023-11-24T01:30:37.519Z,10.10
2023-11-24T01:33:38.961Z,9.70
2023-11-24T01:36:40.477Z,10.63
2023-11-24T01:39:41.948Z,10.63
2023-11-24T01:42:43.314Z,9.32
2023-11-24T01:45:44.823Z,9.67
2023-11-24T01:48:46.230Z,9.50
2023-11-24T01:51:47.725Z,9.25
2023-11-24T01:54:49.114Z,9.05
2023-11-24T01:57:50.627Z,10.45
2023-11-24T02:00:52.106Z,8.57
2023-11-24T02:03:53.586Z,8.63
2023-11-24T02:06:55.075Z,9.90
2023-11-24T02:09:56.493Z,9.30
2023-11-24T02:12:57.957Z,8.77
2023-11-24T02:15:59.415Z,9.53
2023-11-24T02:19:00.958Z,8.80
2023-11-24T02:22:02.365Z,8.70
2023-11-24T02:25:03.907Z,10.95
2023-11-24T02:28:05.310Z,8.98
2023-11-24T02:31:06.795Z,9.07
2023-11-24T02:34:08.365Z,9.20
2023-11-24T02:37:09.756Z,9.35
2023-11-24T02:40:11.120Z,9.13
2023-11-24T02:43:12.505Z,10.50
2023-11-24T02:46:13.910Z,9.30
2023-11-24T02:49:15.359Z,8.80
2023-11-24T02:52:16.793Z,9.02
2023-11-24T02:55:18.113Z,8.23
2023-11-24T02:58:19.499Z,10.05
2023-11-24T03:01:20.884Z,9.87
2023-11-24T03:04:22.360Z,9.15
2023-11-24T03:07:23.724Z,9.38
2023-11-24T03:10:25.161Z,9.13
2023-11-24T03:13:26.479Z,9.23
2023-11-24T03:16:27.903Z,8.53
2023-11-24T03:19:29.254Z,9.10
2023-11-24T03:22:30.631Z,7.70
2023-11-24T03:25:31.975Z,8.85
2023-11-24T03:28:33.374Z,8.95
2023-11-24T03:31:34.738Z,9.87
2023-11-24T03:34:37.278Z,8.77
2023-11-24T03:37:38.819Z,8.98
2023-11-24T03:40:40.229Z,8.73
2023-11-24T03:43:41.564Z,8.60
2023-11-24T03:46:43.054Z,10.10
2023-11-24T03:49:44.518Z,8.25
2023-11-24T03:52:45.920Z,8.10
2023-11-24T03:55:47.310Z,9.15
2023-11-24T03:58:48.657Z,8.38
2023-11-24T04:01:50.128Z,9.17
2023-11-24T04:04:51.481Z,8.35
2023-11-24T04:07:52.878Z,10.25
2023-11-24T04:10:56.869Z,9.35
2023-11-24T04:13:59.078Z,10.20
2023-11-24T04:17:01.527Z,8.73
2023-11-24T04:20:03.083Z,9.10
2023-11-24T04:23:04.409Z,8.18
2023-11-24T04:26:05.804Z,9.25
2023-11-24T04:29:07.129Z,8.13
2023-11-24T04:32:08.549Z,9.33
2023-11-24T04:35:09.948Z,9.35
2023-11-24T04:38:11.337Z,7.72
2023-11-24T04:41:12.752Z,8.75
2023-11-24T04:44:14.102Z,8.15
2023-11-24T04:47:15.495Z,8.37
2023-11-24T04:50:16.898Z,10.10
2023-11-24T04:53:18.283Z,9.88
2023-11-24T04:56:19.690Z,8.93
2023-11-24T04:59:21.017Z,9.90
2023-11-24T05:02:22.492Z,8.13
2023-11-24T05:05:23.878Z,9.10
2023-11-24T05:08:25.266Z,8.85
2023-11-24T05:11:26.582Z,9.98
2023-11-24T05:14:27.974Z,9.27
2023-11-24T05:17:29.385Z,9.73
2023-11-24T05:20:30.718Z,9.82
2023-11-24T05:23:32.136Z,9.43
2023-11-24T05:26:33.505Z,10.43
2023-11-24T05:29:34.877Z,8.82
2023-11-24T05:32:36.284Z,9.00
2023-11-24T05:35:37.702Z,10.32
2023-11-24T05:38:39.093Z,12.25
2023-11-24T05:41:40.504Z,8.93
2023-11-24T05:44:41.887Z,10.02
2023-11-24T05:47:43.332Z,13.07
2023-11-24T05:50:44.702Z,9.65
2023-11-24T05:53:46.097Z,10.30
2023-11-24T05:56:47.497Z,14.88
2023-11-24T05:59:48.871Z,11.93
2023-11-24T06:02:50.219Z,13.87
2023-11-24T06:05:51.614Z,11.75
2023-11-24T06:08:52.925Z,13.40
2023-11-24T06:11:54.359Z,10.27
2023-11-24T06:14:55.752Z,13.25
2023-11-24T06:17:57.213Z,12.33
2023-11-24T06:20:58.647Z,10.80
2023-11-24T06:23:59.979Z,19.63
2023-11-24T06:27:01.443Z,10.20
2023-11-24T06:30:02.857Z,12.27
2023-11-24T06:33:05.587Z,12.23
2023-11-24T06:36:06.954Z,20.15
2023-11-24T06:39:08.379Z,19.80
2023-11-24T06:42:09.727Z,14.43
2023-11-24T06:45:11.121Z,15.02
2023-11-24T06:48:12.550Z,21.83
2023-11-24T06:51:13.952Z,15.45
2023-11-24T06:54:15.289Z,18.23
2023-11-24T06:57:16.692Z,11.75
2023-11-24T07:00:18.044Z,16.83
2023-11-24T07:03:19.496Z,12.70
2023-11-24T07:06:20.869Z,16.90
2023-11-24T07:09:22.285Z,12.60
2023-11-24T07:12:23.621Z,14.80
2023-11-24T07:15:25.028Z,21.42
2023-11-24T07:18:26.400Z,23.50
2023-11-24T07:21:27.880Z,13.27
2023-11-24T07:24:29.224Z,20.83
2023-11-24T07:27:32.306Z,15.18
2023-11-24T07:30:33.861Z,18.05
2023-11-24T07:33:35.483Z,18.87
2023-11-24T07:36:37.004Z,14.27
2023-11-24T07:39:38.439Z,27.48
2023-11-24T07:42:39.854Z,38.00
2023-11-24T07:45:41.297Z,35.58
2023-11-24T07:48:43.163Z,38.80
2023-11-24T07:51:44.694Z,28.00
2023-11-24T07:54:46.139Z,36.47
2023-11-24T07:57:47.521Z,47.95
2023-11-24T08:00:48.936Z,30.35
2023-11-24T08:03:50.394Z,37.20
2023-11-24T08:06:51.763Z,40.38
2023-11-24T08:09:53.179Z,29.55
2023-11-24T08:12:54.660Z,33.92
2023-11-24T08:15:56.365Z,33.28
2023-11-24T08:18:57.788Z,27.60
2023-11-24T08:21:59.267Z,24.48
2023-11-24T08:25:00.760Z,34.35
2023-11-24T08:28:02.210Z,22.58
2023-11-24T08:31:03.662Z,25.98
2023-11-24T08:34:05.217Z,35.67
2023-11-24T08:37:06.666Z,32.35
2023-11-24T08:40:08.367Z,41.38
2023-11-24T08:43:09.893Z,84.95
2023-11-24T08:46:11.377Z,98.50
2023-11-24T08:49:12.910Z,77.27
2023-11-24T08:52:14.903Z,68.70
2023-11-24T08:55:16.512Z,69.32
2023-11-24T08:58:17.939Z,76.95
2023-11-24T09:01:19.506Z,57.25
2023-11-24T09:04:20.938Z,54.43
2023-11-24T09:07:22.408Z,56.55
2023-11-24T09:10:23.794Z,52.05
2023-11-24T09:13:25.207Z,52.80
2023-11-24T09:16:26.598Z,47.75
2023-11-24T09:19:28.014Z,42.77
2023-11-24T09:22:29.419Z,32.17
2023-11-24T09:25:30.873Z,43.30
2023-11-24T09:28:32.229Z,50.42
2023-11-24T09:31:33.676Z,37.33
2023-11-24T09:34:35.169Z,32.83
2023-11-24T09:37:37.409Z,36.03
2023-11-24T09:40:38.862Z,34.53
2023-11-24T09:43:40.245Z,25.55
2023-11-24T09:46:49.156Z,28.35
2023-11-24T09:49:53.464Z,29.37
2023-11-24T09:52:54.875Z,24.38
2023-11-24T09:55:56.280Z,30.80
2023-11-24T09:58:57.679Z,26.30
2023-11-24T10:01:59.093Z,22.40
2023-11-24T10:05:00.555Z,31.40
2023-11-24T10:08:02.750Z,29.58
2023-11-24T10:11:04.161Z,18.17
2023-11-24T10:14:06.036Z,21.38
2023-11-24T10:17:07.454Z,21.15
2023-11-24T10:20:08.865Z,25.00
2023-11-24T10:23:10.271Z,28.58
2023-11-24T10:26:14.002Z,29.38
2023-11-24T10:29:16.680Z,35.42
2023-11-24T10:32:18.019Z,21.23
2023-11-24T10:35:19.467Z,28.93
2023-11-24T10:38:20.892Z,19.42
2023-11-24T10:41:22.322Z,17.50
2023-11-24T10:44:23.721Z,22.38
2023-11-24T10:47:25.123Z,15.85
2023-11-24T10:50:26.475Z,13.77
2023-11-24T10:53:27.880Z,20.98
2023-11-24T10:56:29.311Z,18.48
2023-11-24T10:59:30.637Z,15.70
2023-11-24T11:02:32.072Z,18.23
2023-11-24T11:05:33.431Z,21.13
2023-11-24T11:08:34.809Z,26.73
2023-11-24T11:11:36.220Z,32.25
2023-11-24T11:14:37.617Z,27.27
2023-11-24T11:17:39.031Z,23.90
2023-11-24T11:20:40.383Z,21.63
2023-11-24T11:23:41.782Z,19.95
2023-11-24T11:26:43.193Z,22.63
2023-11-24T11:29:44.586Z,16.77
2023-11-24T11:32:45.926Z,20.50
2023-11-24T11:35:47.335Z,21.80
2023-11-24T11:38:49.792Z,20.88
2023-11-24T11:41:51.130Z,27.35
2023-11-24T11:44:52.551Z,18.70
2023-11-24T11:47:53.931Z,21.75
2023-11-24T11:50:55.354Z,17.07
2023-11-24T11:53:56.682Z,22.58
2023-11-24T11:56:58.087Z,18.55
2023-11-24T11:59:59.499Z,23.05
2023-11-24T12:03:01.287Z,21.50
2023-11-24T12:06:02.873Z,13.23
2023-11-24T12:09:04.219Z,17.52
2023-11-24T12:12:05.614Z,16.17
2023-11-24T12:15:06.936Z,11.43
2023-11-24T12:18:08.375Z,12.52
2023-11-24T12:21:09.728Z,14.27
2023-11-24T12:24:16.763Z,12.25
2023-11-24T12:27:18.695Z,10.40
2023-11-24T12:30:20.081Z,14.70
2023-11-24T12:33:21.556Z,9.05
2023-11-24T12:36:22.991Z,12.97
2023-11-24T12:39:24.342Z,14.90
2023-11-24T12:42:25.750Z,11.73
2023-11-24T12:45:27.075Z,17.50
2023-11-24T12:48:28.470Z,23.02
2023-11-24T12:51:29.802Z,21.23
2023-11-24T12:54:31.187Z,18.63
2023-11-24T12:57:32.508Z,14.63
2023-11-24T13:00:37.791Z,18.05
2023-11-24T13:03:39.515Z,16.98
2023-11-24T13:06:40.987Z,13.80
2023-11-24T13:09:42.591Z,9.45
2023-11-24T13:12:44.018Z,16.45
2023-11-24T13:15:45.390Z,16.27
2023-11-24T13:18:46.827Z,21.85
2023-11-24T13:21:48.269Z,22.60
2023-11-24T13:24:49.595Z,26.23
2023-11-24T13:27:51.038Z,21.77
2023-11-24T13:30:52.409Z,14.57
2023-11-24T13:33:53.862Z,13.70
2023-11-24T13:36:56.673Z,9.37
2023-11-24T13:39:59.256Z,15.50
2023-11-24T13:43:00.775Z,18.83
2023-11-24T13:46:02.276Z,17.85
2023-11-24T13:49:03.788Z,18.95
2023-11-24T13:52:05.286Z,12.73
2023-11-24T13:55:06.752Z,12.48
2023-11-24T13:58:08.338Z,10.88
2023-11-24T14:01:09.758Z,12.68
2023-11-24T14:04:11.294Z,16.15
2023-11-24T14:07:12.783Z,8.37
2023-11-24T14:10:15.403Z,18.17
2023-11-24T14:13:17.972Z,12.90
2023-11-24T14:16:19.679Z,16.92
2023-11-24T14:19:21.073Z,8.18
2023-11-24T14:22:25.333Z,11.27
2023-11-24T14:25:26.916Z,13.07
2023-11-24T14:28:28.506Z,16.58
2023-11-24T14:31:29.983Z,15.07
2023-11-24T14:34:31.383Z,18.85
2023-11-24T14:37:32.817Z,13.20
2023-11-24T14:40:34.290Z,29.58
2023-11-24T14:43:35.693Z,24.40
2023-11-24T14:46:37.135Z,22.30
2023-11-24T14:49:38.488Z,60.95
2023-11-24T14:52:39.936Z,41.53
2023-11-24T14:55:41.340Z,43.05
2023-11-24T14:58:42.765Z,31.83
2023-11-24T15:01:44.741Z,25.83
2023-11-24T15:04:46.449Z,25.60
2023-11-24T15:07:47.892Z,29.90
2023-11-24T15:10:49.217Z,29.27
2023-11-24T15:13:50.914Z,22.63
2023-11-24T15:16:52.443Z,24.80
2023-11-24T15:19:53.881Z,18.73
2023-11-24T15:22:55.264Z,20.00
2023-11-24T15:25:56.601Z,24.20
2023-11-24T15:28:57.997Z,26.40
2023-11-24T15:31:59.406Z,56.17
2023-11-24T15:35:00.862Z,40.17
2023-11-24T15:38:02.206Z,18.07
2023-11-24T15:41:06.002Z,16.48
2023-11-24T15:44:08.140Z,12.95
2023-11-24T15:47:09.666Z,11.25
2023-11-24T15:50:11.065Z,12.68
2023-11-24T15:53:12.501Z,14.07
2023-11-24T15:56:13.822Z,8.50
2023-11-24T15:59:15.222Z,4.95
2023-11-24T16:02:16.853Z,4.32
2023-11-24T16:05:18.403Z,5.53
2023-11-24T16:08:19.737Z,6.10
2023-11-24T16:11:21.147Z,5.32
2023-11-24T16:14:22.462Z,6.25
2023-11-24T16:17:23.878Z,5.53
2023-11-24T16:20:25.294Z,6.03
2023-11-24T16:23:26.623Z,6.97
2023-11-24T16:26:28.012Z,7.85
2023-11-24T16:29:29.403Z,5.55
2023-11-24T16:32:30.819Z,6.55
2023-11-24T16:35:32.177Z,7.72
2023-11-24T16:38:33.576Z,7.43
2023-11-24T16:41:34.957Z,7.55
2023-11-24T16:44:36.278Z,5.68
2023-11-24T16:47:37.755Z,7.00
2023-11-24T16:50:39.088Z,8.40
2023-11-24T16:53:40.503Z,6.27
2023-11-24T16:56:41.833Z,8.60
2023-11-24T16:59:43.232Z,10.45
2023-11-24T17:02:44.709Z,6.90
2023-11-24T17:05:46.172Z,8.75
2023-11-24T17:08:47.497Z,7.53
2023-11-24T17:11:48.868Z,6.38
2023-11-24T17:14:50.186Z,6.10
2023-11-24T17:17:51.616Z,10.25
2023-11-24T17:20:52.962Z,8.68
2023-11-24T17:23:54.351Z,7.33
2023-11-24T17:26:55.669Z,9.13
2023-11-24T17:29:57.090Z,7.47
2023-11-24T17:32:58.508Z,7.88
2023-11-24T17:35:59.941Z,9.15
2023-11-24T17:39:01.326Z,8.63
2023-11-24T17:42:02.721Z,10.40
2023-11-24T17:45:04.055Z,12.07
2023-11-24T17:48:05.540Z,12.13
2023-11-24T17:51:07.078Z,12.38
2023-11-24T17:54:08.487Z,15.70
2023-11-24T17:57:09.876Z,12.27
2023-11-24T18:00:11.270Z,14.05
2023-11-24T18:03:12.656Z,17.90
2023-11-24T18:06:14.068Z,16.67
2023-11-24T18:09:15.388Z,16.80
2023-11-24T18:12:16.784Z,22.40
2023-11-24T18:15:18.119Z,19.90
2023-11-24T18:18:19.898Z,18.95
2023-11-24T18:21:21.243Z,19.45
2023-11-24T18:24:22.646Z,23.33
2023-11-24T19:58:21.761Z,19.80
2023-11-24T20:01:23.346Z,21.10
2023-11-24T20:04:24.837Z,19.55
2023-11-24T20:07:26.247Z,21.48
2023-11-24T20:10:27.728Z,17.93
2023-11-24T20:13:29.087Z,18.05
2023-11-24T20:16:30.881Z,20.10
2023-11-24T20:19:32.326Z,16.23
2023-11-24T20:22:34.049Z,18.13
2023-11-24T20:25:35.582Z,17.63
2023-11-24T20:28:37.011Z,16.17
2023-11-24T20:31:38.691Z,17.45
2023-11-24T20:34:40.254Z,16.60
2023-11-24T20:37:41.758Z,15.95
2023-11-24T20:40:43.141Z,15.83
2023-11-24T20:43:44.856Z,15.25
2023-11-24T20:46:46.334Z,17.45
2023-11-24T20:49:47.741Z,17.13
2023-11-24T20:52:49.152Z,16.30
2023-11-24T20:55:50.768Z,16.70
2023-11-24T20:58:52.196Z,14.98
2023-11-24T21:01:53.803Z,15.25
2023-11-24T21:04:55.356Z,15.18
2023-11-24T21:07:56.788Z,14.68
2023-11-24T21:10:58.516Z,14.50
2023-11-24T21:13:59.969Z,12.68
2023-11-24T21:17:01.393Z,12.15
2023-11-24T21:20:02.702Z,12.77
2023-11-24T21:23:04.167Z,13.43
2023-11-24T21:26:05.580Z,12.67
2023-11-24T21:29:06.908Z,11.95
2023-11-24T21:32:08.308Z,10.77
2023-11-24T21:35:09.634Z,10.70
2023-11-24T21:38:11.033Z,10.95
2023-11-24T21:41:12.371Z,10.57
2023-11-24T21:44:13.755Z,10.52
2023-11-24T21:47:15.145Z,10.98
2023-11-24T21:50:16.541Z,10.15
2023-11-24T21:53:17.863Z,10.48
2023-11-24T21:56:19.245Z,10.23
2023-11-24T21:59:20.618Z,10.25
2023-11-24T22:02:22.036Z,10.68
2023-11-24T22:05:23.429Z,11.82
2023-11-24T22:08:24.768Z,10.60
2023-11-24T22:11:26.172Z,9.63
2023-11-24T22:14:27.551Z,10.20
2023-11-24T22:17:28.914Z,9.13
2023-11-24T22:20:30.352Z,10.18
2023-11-24T22:23:31.675Z,9.75
2023-11-24T22:26:33.441Z,8.97
2023-11-24T22:29:34.841Z,7.85
2023-11-24T22:32:36.737Z,10.27
2023-11-24T22:35:38.216Z,10.15
2023-11-24T22:38:39.603Z,8.85
2023-11-24T22:41:40.909Z,9.30
2023-11-24T22:44:42.287Z,8.27
2023-11-24T22:47:43.706Z,8.98
2023-11-24T22:50:45.053Z,8.85
2023-11-24T22:53:46.463Z,9.35
2023-11-24T22:56:47.792Z,8.10
2023-11-24T22:59:49.180Z,8.35
2023-11-24T23:02:50.651Z,10.35
2023-11-24T23:05:52.010Z,8.40
2023-11-24T23:08:53.424Z,8.93
2023-11-24T23:11:54.794Z,8.50
2023-11-24T23:14:56.247Z,8.63
2023-11-24T23:17:57.672Z,10.80
2023-11-24T23:20:59.083Z,8.38
2023-11-24T23:24:00.527Z,9.23
2023-11-24T23:27:01.855Z,8.83
2023-11-24T23:30:03.247Z,9.52
2023-11-24T23:33:13.079Z,9.68
2023-11-24T23:36:19.442Z,9.88
2023-11-24T23:39:20.810Z,9.35
2023-11-24T23:42:22.186Z,9.07
2023-11-24T23:45:23.578Z,8.02
2023-11-24T23:48:25.002Z,10.65
2023-11-24T23:51:26.306Z,9.68
2023-11-24T23:54:27.675Z,7.70
2023-11-24T23:57:29.058Z,8.33
